Time;durP1;ratioP1;P1;durP2;ratioP2;P2;SDS_P1;SDS_P2;PMS_P1;PMS_P2;Temp;Humidity;BMP_temperature;BMP_pressure;BME280_temperature;BME280_humidity;BME280_pressure;Samples;Min_cycle;Max_cycle;Signal;HPM_P1;HPM_P2
2022/10/14 00:01:31;;;;;;;46.95;26.95;;;2.60;99.90;;;2.92;100.00;100072.09;5005091;28;118648;-76
2022/10/14 00:04:01;;;;;;;46.75;24.48;;;2.60;99.90;;;2.97;100.00;100074.03;5020609;28;130286;-76
2022/10/14 00:06:32;;;;;;;50.75;27.95;;;2.70;99.90;;;3.00;100.00;100074.34;5021056;28;129552;-76
2022/10/14 00:09:03;;;;;;;52.22;27.05;;;2.70;99.90;;;3.02;100.00;100074.09;5020878;28;120096;-76
2022/10/14 00:11:34;;;;;;;59.17;30.20;;;2.70;99.90;;;3.04;100.00;100074.66;5020802;28;119431;-76
2022/10/14 00:14:08;;;;;;;57.97;31.48;;;2.70;99.90;;;3.05;100.00;100066.38;5004765;28;129364;-76
2022/10/14 00:16:40;;;;;;;69.18;35.85;;;2.80;99.90;;;3.04;100.00;100070.09;5020781;28;130092;-76
2022/10/14 00:19:12;;;;;;;55.85;31.63;;;2.70;99.90;;;3.04;100.00;100063.94;5020857;28;119594;-77
2022/10/14 00:21:44;;;;;;;55.45;29.85;;;2.70;99.90;;;3.09;100.00;100057.84;5020920;28;120335;-76
2022/10/14 00:24:14;;;;;;;55.47;31.33;;;2.80;99.90;;;3.11;100.00;100048.47;5020525;28;129852;-76
2022/10/14 00:26:44;;;;;;;55.55;29.80;;;2.80;99.90;;;3.15;100.00;100044.25;5020138;28;129230;-76
2022/10/14 00:29:17;;;;;;;52.63;30.50;;;2.80;99.90;;;3.21;100.00;100056.66;5020652;28;119636;-76
2022/10/14 00:31:47;;;;;;;46.97;26.70;;;2.90;99.90;;;3.17;100.00;100047.47;5002858;28;119558;-76
2022/10/14 00:34:17;;;;;;;50.45;29.02;;;2.90;99.90;;;3.12;100.00;100039.38;5005427;28;128814;-76
2022/10/14 00:36:45;;;;;;;53.60;30.38;;;2.90;99.90;;;3.07;100.00;100042.00;5001874;28;129371;-75
2022/10/14 00:39:20;;;;;;;52.95;30.35;;;2.90;99.90;;;3.05;100.00;100038.72;5019415;28;121990;-76
2022/10/14 00:41:48;;;;;;;49.28;29.02;;;2.90;99.90;;;3.11;100.00;100042.31;5002355;28;121833;-76
2022/10/14 00:45:05;;;;;;;50.40;29.63;;;2.90;99.90;;;3.12;100.00;100028.66;5004967;28;129436;-75
2022/10/14 00:47:38;;;;;;;54.50;29.45;;;3.00;99.90;;;3.12;100.00;100031.31;5022449;28;129679;-75
2022/10/14 00:50:12;;;;;;;51.85;30.17;;;3.00;99.90;;;3.16;100.00;100028.94;5002359;28;119793;-75
2022/10/14 00:52:41;;;;;;;53.70;29.60;;;3.00;99.90;;;3.17;100.00;100022.53;5004199;28;120372;-75
2022/10/14 00:55:16;;;;;;;52.22;29.52;;;3.10;99.90;;;3.18;100.00;100032.19;5001948;28;130126;-76
2022/10/14 00:57:45;;;;;;;50.35;30.27;;;3.10;99.90;;;3.16;100.00;100019.03;5020235;28;129684;-75
2022/10/14 01:00:19;;;;;;;49.50;29.30;;;3.00;99.90;;;3.15;100.00;100025.47;5005207;28;118744;-76
2022/10/14 01:02:47;;;;;;;54.38;30.42;;;3.00;99.90;;;3.14;100.00;100015.78;5020095;28;119555;-76
2022/10/14 01:05:19;;;;;;;48.88;26.77;;;3.10;99.90;;;3.09;100.00;100018.41;5017464;28;130008;-76
2022/10/14 01:08:02;;;;;;;44.25;25.65;;;3.10;99.90;;;3.04;100.00;100016.47;5001591;28;130306;-75
2022/10/14 01:10:42;;;;;;;44.20;25.48;;;3.00;99.90;;;3.06;100.00;100018.91;5005134;28;119399;-75
2022/10/14 01:13:25;;;;;;;45.10;23.75;;;3.00;99.90;;;3.08;100.00;100022.16;5019544;28;119533;-76
2022/10/14 01:16:12;;;;;;;43.50;24.00;;;2.90;99.90;;;3.06;100.00;100013.53;5019775;28;130286;-74
2022/10/14 01:19:06;;;;;;;51.58;27.25;;;2.80;99.90;;;3.02;100.00;100012.41;5019800;28;129447;-75
2022/10/14 01:21:42;;;;;;;42.22;24.63;;;2.80;99.90;;;3.04;100.00;100007.63;4989019;28;119442;-76
2022/10/14 01:24:44;;;;;;;44.55;24.83;;;2.80;99.90;;;3.03;100.00;100008.69;5002578;28;120044;-75
2022/10/14 01:27:48;;;;;;;41.13;24.65;;;2.70;99.90;;;2.97;100.00;100004.31;5005080;28;129948;-75
2022/10/14 01:30:20;;;;;;;43.83;26.02;;;2.70;99.90;;;2.94;100.00;100004.81;5017450;28;129813;-76
2022/10/14 01:33:08;;;;;;;42.67;24.83;;;2.80;99.90;;;2.92;100.00;100001.56;5020547;28;122146;-76
2022/10/14 01:35:51;;;;;;;43.78;25.42;;;2.70;99.90;;;2.92;100.00;100004.25;5021648;28;121832;-76
2022/10/14 01:38:25;;;;;;;39.95;24.02;;;2.70;99.90;;;2.88;100.00;100010.09;5003055;28;130907;-75
2022/10/14 01:41:03;;;;;;;56.90;28.80;;;2.70;99.90;;;2.88;100.00;100004.75;5005904;28;129911;-76
2022/10/14 01:43:34;;;;;;;48.50;26.70;;;2.60;99.90;;;2.93;100.00;100008.53;5006146;28;119014;-76
2022/10/14 01:46:07;;;;;;;49.88;27.05;;;2.60;99.90;;;2.93;100.00;100003.16;5002356;28;119842;-77
2022/10/14 01:48:38;;;;;;;48.53;27.63;;;2.70;99.90;;;2.95;100.00;100009.13;5000961;28;129914;-76
2022/10/14 01:51:14;;;;;;;51.70;28.88;;;2.80;99.90;;;2.95;100.00;100009.13;5005050;28;128853;-76
2022/10/14 01:53:54;;;;;;;52.35;28.75;;;2.90;99.90;;;2.88;100.00;100002.06;4987925;28;118690;-77
2022/10/14 01:56:28;;;;;;;41.33;26.25;;;3.00;99.90;;;2.87;100.00;100000.44;5005225;28;119477;-76
2022/10/14 01:59:00;;;;;;;47.05;28.30;;;2.90;99.90;;;2.83;100.00;100001.97;5018403;28;130145;-77
2022/10/14 02:01:30;;;;;;;45.35;27.08;;;2.90;99.90;;;2.90;100.00;100009.03;5005298;28;129081;-75
2022/10/14 02:03:59;;;;;;;47.25;28.92;;;2.80;99.90;;;2.94;100.00;100010.97;5001736;28;119519;-74
2022/10/14 02:06:35;;;;;;;55.47;30.90;;;2.80;99.90;;;3.05;100.00;100007.38;5004586;28;119058;-77
2022/10/14 02:09:17;;;;;;;52.50;29.42;;;2.80;99.90;;;3.08;100.00;99994.53;5000694;28;130897;-75
2022/10/14 02:12:04;;;;;;;58.55;32.25;;;2.80;99.90;;;3.01;100.00;100006.25;5018927;28;129358;-75
2022/10/14 02:14:44;;;;;;;56.42;29.95;;;3.00;99.90;;;2.97;100.00;100002.44;5001050;28;119310;-75
2022/10/14 02:17:22;;;;;;;53.10;31.35;;;3.10;99.90;;;3.02;100.00;100001.69;5004848;28;119289;-77
2022/10/14 02:19:57;;;;;;;59.95;32.65;;;3.00;99.90;;;3.06;100.00;100002.81;4993602;28;130405;-76
2022/10/14 02:22:31;;;;;;;57.80;32.83;;;3.00;99.90;;;3.01;100.00;100000.09;5018733;27;130135;-76
2022/10/14 02:25:27;;;;;;;52.30;33.67;;;3.00;99.90;;;2.95;100.00;99995.72;5005216;28;122483;-75
2022/10/14 02:27:57;;;;;;;52.08;28.90;;;3.10;99.90;;;2.88;100.00;99990.50;5007565;28;121442;-75
2022/10/14 02:30:29;;;;;;;46.13;26.63;;;2.90;99.90;;;2.84;100.00;99987.53;5004028;28;130454;-76
2022/10/14 02:33:01;;;;;;;55.55;31.58;;;2.80;99.90;;;2.83;100.00;99991.25;5004113;28;129733;-75
2022/10/14 02:35:31;;;;;;;52.20;30.40;;;2.90;99.90;;;2.86;100.00;99996.13;5022503;28;119871;-76
2022/10/14 02:38:01;;;;;;;58.38;30.75;;;2.90;99.90;;;2.90;100.00;99998.31;5004462;28;119851;-76
2022/10/14 02:40:37;;;;;;;51.88;27.80;;;2.90;99.90;;;2.85;100.00;99982.97;4990901;28;129149;-76
2022/10/14 02:43:08;;;;;;;48.83;26.97;;;2.90;99.90;;;2.79;100.00;99987.47;5004391;28;130063;-76
2022/10/14 02:45:39;;;;;;;49.08;28.27;;;2.80;99.90;;;2.79;100.00;99984.78;5022557;28;119597;-75
2022/10/14 02:48:10;;;;;;;50.35;28.55;;;2.80;99.90;;;2.78;100.00;99988.50;5006937;28;119478;-74
2022/10/14 02:50:40;;;;;;;56.25;30.55;;;2.80;99.90;;;2.75;100.00;99994.38;5003317;28;130181;-75
2022/10/14 02:53:14;;;;;;;47.22;28.00;;;2.80;99.90;;;2.72;100.00;99992.19;5007780;28;129271;-77
2022/10/14 02:55:43;;;;;;;44.47;26.40;;;2.80;99.90;;;2.73;100.00;99990.31;5022059;28;120148;-74
2022/10/14 02:58:12;;;;;;;55.30;28.30;;;2.70;99.90;;;2.74;100.00;99990.06;5004171;28;119688;-76
2022/10/14 03:00:40;;;;;;;45.20;26.23;;;2.70;99.90;;;2.65;100.00;99986.19;5003737;28;130045;-75
2022/10/14 03:03:11;;;;;;;46.45;24.80;;;2.70;99.90;;;2.61;100.00;99990.44;5006391;28;129041;-76
2022/10/14 03:05:40;;;;;;;44.60;24.48;;;2.70;99.90;;;2.58;100.00;99986.34;5004373;28;119620;-76
2022/10/14 03:08:14;;;;;;;39.45;24.65;;;2.60;99.90;;;2.57;100.00;99990.13;5004023;28;120067;-77
2022/10/14 03:10:45;;;;;;;42.38;25.63;;;2.60;99.90;;;2.62;100.00;99992.06;5021068;28;130539;-76
2022/10/14 03:13:14;;;;;;;52.15;29.30;;;2.70;99.90;;;2.68;100.00;99991.03;4990180;28;129707;-76
2022/10/14 03:15:49;;;;;;;50.47;29.30;;;2.70;99.90;;;2.70;100.00;99984.38;4989110;28;120923;-76
2022/10/14 03:18:20;;;;;;;46.60;28.17;;;2.80;99.90;;;2.75;100.00;99989.00;5003936;28;122591;-76
2022/10/14 03:20:50;;;;;;;49.95;28.77;;;2.90;1.00;;;2.75;100.00;99986.31;5023828;28;129942;-76
2022/10/14 03:23:27;;;;;;;49.75;30.15;;;3.00;1.00;;;2.78;100.00;99979.66;4992540;28;128449;-76
2022/10/14 03:25:56;;;;;;;59.45;31.42;;;3.00;1.00;;;2.83;100.00;99969.81;5011409;28;119936;-76
2022/10/14 03:28:31;;;;;;;59.97;31.92;;;3.10;1.00;;;2.90;100.00;99974.19;5013319;28;118603;-77
2022/10/14 03:31:14;;;;;;;60.72;33.63;;;3.20;1.00;;;2.96;100.00;99975.88;5009770;28;129863;-76
2022/10/14 03:34:04;;;;;;;55.70;33.55;;;3.20;1.00;;;2.92;100.00;99975.56;5029036;27;129213;-75
2022/10/14 03:36:33;;;;;;;56.40;32.70;;;3.20;1.00;;;2.93;100.00;99976.38;5010054;28;119632;-75
2022/10/14 03:39:02;;;;;;;49.72;29.05;;;3.20;1.00;;;2.92;100.00;99980.91;5011612;28;119257;-75
2022/10/14 03:41:50;;;;;;;52.08;29.75;;;3.10;1.00;;;2.87;100.00;99979.00;4995225;28;129254;-75
2022/10/14 03:44:23;;;;;;;47.10;28.65;;;3.00;1.00;;;2.92;100.00;99974.75;5022540;28;129818;-76
2022/10/14 03:47:12;;;;;;;52.85;29.52;;;2.90;1.00;;;2.99;100.00;99976.19;5028152;28;119403;-76
2022/10/14 03:49:42;;;;;;;52.35;30.30;;;2.80;1.00;;;3.03;100.00;99973.81;5003484;28;118529;-76
2022/10/14 03:52:18;;;;;;;60.40;33.53;;;2.90;1.00;;;3.09;100.00;99969.34;5003958;28;130073;-74
2022/10/14 03:54:54;;;;;;;52.35;33.80;;;3.20;1.00;;;3.05;100.00;99971.69;4995496;28;128714;-74
2022/10/14 03:57:23;;;;;;;55.03;34.58;;;3.30;1.00;;;3.05;100.00;99969.00;5009068;28;119069;-75
2022/10/14 03:59:56;;;;;;;54.83;33.40;;;3.40;1.00;;;3.07;100.00;99964.22;5004389;28;119860;-75
2022/10/14 04:02:29;;;;;;;58.60;34.40;;;3.30;1.00;;;3.08;100.00;99957.78;4992902;28;130224;-75
2022/10/14 04:05:01;;;;;;;53.80;31.35;;;3.20;1.00;;;3.05;100.00;99969.00;5013689;28;129862;-75
2022/10/14 04:07:30;;;;;;;50.55;29.92;;;3.10;1.00;;;2.96;100.00;99970.50;5009338;28;122722;-77
2022/10/14 04:09:59;;;;;;;47.50;27.00;;;3.00;1.00;;;2.83;100.00;99966.31;5033666;28;122379;-76
2022/10/14 04:12:28;;;;;;;48.67;28.15;;;2.90;1.00;;;2.68;100.00;99958.88;5010944;28;129836;-75
2022/10/14 04:15:09;;;;;;;46.42;27.80;;;2.80;1.00;;;2.71;100.00;99963.75;5011808;28;130252;-74
2022/10/14 04:17:57;;;;;;;53.50;29.70;;;2.70;1.00;;;2.73;100.00;99958.13;5013978;28;119414;-75
2022/10/14 04:20:27;;;;;;;54.45;30.27;;;2.70;1.00;;;2.75;100.00;99953.38;5015199;28;118786;-76
2022/10/14 04:22:59;;;;;;;48.80;28.98;;;2.80;1.00;;;2.71;100.00;99947.66;5010352;28;130276;-75
2022/10/14 04:25:28;;;;;;;46.17;28.25;;;2.80;1.00;;;2.61;100.00;99952.91;5015474;28;129047;-76
2022/10/14 04:28:03;;;;;;;48.00;27.23;;;2.70;1.00;;;2.56;100.00;99947.50;5029823;28;119875;-76
2022/10/14 04:30:48;;;;;;;48.85;28.27;;;2.70;1.00;;;2.57;100.00;99941.06;4997874;28;118510;-76
2022/10/14 04:33:26;;;;;;;52.40;29.67;;;2.60;1.00;;;2.60;100.00;99940.56;5009507;28;129915;-76
2022/10/14 04:35:59;;;;;;;53.90;30.70;;;2.50;1.00;;;2.59;100.00;99944.31;5013571;28;129196;-75
2022/10/14 04:38:34;;;;;;;55.65;30.17;;;2.70;1.00;;;2.64;100.00;99936.34;5012095;28;119326;-75
2022/10/14 04:41:07;;;;;;;52.03;30.40;;;2.80;1.00;;;2.67;100.00;99941.19;4999810;28;119804;-75
2022/10/14 04:43:36;;;;;;;50.10;28.08;;;2.70;1.00;;;2.64;100.00;99936.34;4998810;28;128376;-75
2022/10/14 04:46:20;;;;;;;46.63;27.20;;;2.60;1.00;;;2.57;100.00;99941.88;5013258;28;129360;-75
2022/10/14 04:48:49;;;;;;;51.30;26.83;;;2.60;1.00;;;2.57;100.00;99935.69;5006138;28;120370;-76
2022/10/14 04:51:20;;;;;;;45.42;25.92;;;2.50;1.00;;;2.58;100.00;99942.69;5006919;28;119435;-77
2022/10/14 04:54:10;;;;;;;50.33;26.08;;;2.50;1.00;;;2.58;100.00;99938.13;5013716;27;130068;-77
2022/10/14 04:56:48;;;;;;;48.35;26.83;;;2.50;1.00;;;2.68;100.00;99937.44;4990656;28;130433;-76
2022/10/14 04:59:16;;;;;;;54.92;29.45;;;2.40;1.00;;;2.73;100.00;99940.22;4988392;28;122136;-75
2022/10/14 05:02:00;;;;;;;54.47;30.30;;;2.50;1.00;;;2.72;100.00;99927.84;4989979;28;121398;-76
2022/10/14 05:04:37;;;;;;;48.47;28.23;;;2.70;1.00;;;2.73;100.00;99934.84;5007719;28;130676;-77
2022/10/14 05:07:07;;;;;;;45.95;27.52;;;2.80;1.00;;;2.75;100.00;99942.66;5006581;28;129781;-76
2022/10/14 05:09:36;;;;;;;47.80;26.90;;;2.80;1.00;;;2.75;100.00;99943.44;5010144;28;118908;-76
2022/10/14 05:12:05;;;;;;;48.42;26.33;;;2.70;1.00;;;2.82;100.00;99948.63;5008225;28;118257;-77
2022/10/14 05:14:45;;;;;;;47.95;27.65;;;2.70;1.00;;;2.94;100.00;99940.47;5017469;28;129241;-76
2022/10/14 05:17:24;;;;;;;42.65;25.08;;;2.80;1.00;;;3.02;100.00;99937.31;5011696;28;129944;-76
2022/10/14 05:19:52;;;;;;;43.45;23.55;;;2.90;1.00;;;3.00;100.00;99939.47;5009053;28;118928;-76
2022/10/14 05:22:26;;;;;;;44.55;25.50;;;2.90;1.00;;;3.11;100.00;99935.03;5013430;28;118509;-76
2022/10/14 05:24:55;;;;;;;42.05;24.10;;;2.90;1.00;;;3.21;100.00;99929.75;5014655;28;129866;-76
2022/10/14 05:27:24;;;;;;;48.65;24.55;;;3.00;1.00;;;3.28;100.00;99921.53;4992156;28;128683;-76
2022/10/14 05:29:53;;;;;;;47.03;25.38;;;3.10;1.00;;;3.39;100.00;99926.72;5006763;28;119212;-76
2022/10/14 05:32:22;;;;;;;41.40;23.90;;;3.20;1.00;;;3.55;100.00;99925.03;5001066;28;120115;-76
2022/10/14 05:34:54;;;;;;;45.25;25.40;;;3.30;1.00;;;3.66;100.00;99933.16;5004264;28;130423;-76
2022/10/14 05:37:36;;;;;;;42.33;25.60;;;3.40;1.00;;;3.84;100.00;99924.72;5000614;28;129275;-76
2022/10/14 05:40:06;;;;;;;42.42;27.60;;;3.60;1.00;;;4.01;100.00;99918.41;5019032;28;120226;-76
2022/10/14 05:42:38;;;;;;;50.58;27.80;;;3.80;1.00;;;4.18;100.00;99919.06;5019235;28;119416;-75
2022/10/14 05:45:07;;;;;;;48.95;27.63;;;4.10;1.00;;;4.30;100.00;99919.69;5004193;28;129817;-75
2022/10/14 05:47:39;;;;;;;42.95;27.42;;;4.20;1.00;;;4.47;100.00;99924.06;5002953;28;129764;-76
2022/10/14 05:50:15;;;;;;;44.92;24.17;;;4.30;1.00;;;4.68;100.00;99931.16;4986761;28;120933;-76
2022/10/14 05:52:49;;;;;;;39.72;25.75;;;4.40;1.00;;;4.87;100.00;99925.34;5006072;28;121804;-76
2022/10/14 05:55:26;;;;;;;47.25;23.77;;;4.50;1.00;;;5.02;100.00;99928.09;5001374;28;129065;-76
2022/10/14 05:57:59;;;;;;;38.13;23.13;;;4.70;99.90;;;5.15;100.00;99924.09;5005621;28;130948;-75
2022/10/14 06:00:34;;;;;;;40.40;23.40;;;4.80;99.90;;;5.30;100.00;99920.63;5005373;28;119737;-75
2022/10/14 06:03:12;;;;;;;37.50;23.00;;;5.00;99.90;;;5.44;100.00;99914.72;5007993;28;119061;-76
2022/10/14 06:05:42;;;;;;;34.88;22.20;;;5.10;99.90;;;5.60;100.00;99916.38;5024066;28;130188;-76
2022/10/14 06:08:12;;;;;;;35.08;20.48;;;5.20;99.90;;;5.82;100.00;99920.69;4995125;28;129198;-76
2022/10/14 06:10:41;;;;;;;27.73;16.70;;;5.40;99.90;;;5.95;100.00;99920.13;5010392;28;119243;-78
2022/10/14 06:13:09;;;;;;;28.05;15.98;;;5.50;99.90;;;6.15;100.00;99918.53;5014930;28;118901;-76
2022/10/14 06:15:40;;;;;;;33.35;17.65;;;5.70;99.90;;;6.37;100.00;99927.13;5008967;28;129223;-77
2022/10/14 06:18:09;;;;;;;29.80;16.80;;;5.90;99.90;;;6.61;100.00;99921.16;5006760;28;130359;-77
2022/10/14 06:20:37;;;;;;;34.35;18.40;;;6.10;99.90;;;6.94;100.00;99913.47;4994464;28;119572;-76
2022/10/14 06:23:06;;;;;;;26.40;15.63;;;6.40;99.90;;;6.98;100.00;99918.03;5024454;28;120365;-76
2022/10/14 06:25:37;;;;;;;28.67;14.98;;;6.40;99.90;;;7.13;100.00;99922.53;5024820;28;130003;-75
2022/10/14 06:28:06;;;;;;;28.42;16.75;;;6.50;99.90;;;7.31;100.00;99923.00;5023557;28;129411;-76
2022/10/14 06:30:35;;;;;;;33.65;15.80;;;6.70;99.90;;;7.43;100.00;99918.03;5009174;28;118384;-77
2022/10/14 06:33:03;;;;;;;27.02;14.75;;;6.70;99.90;;;7.58;100.00;99917.13;5023276;27;119685;-77
2022/10/14 06:35:31;;;;;;;29.17;14.77;;;6.90;99.90;;;7.72;100.00;99917.31;5017841;27;130793;-76
2022/10/14 06:38:00;;;;;;;26.38;14.93;;;7.00;99.90;;;7.85;100.00;99918.56;5014489;27;129811;-75
2022/10/14 06:40:29;;;;;;;24.17;13.50;;;7.00;99.90;;;7.99;100.00;99916.00;5007364;28;123038;-76
2022/10/14 06:43:00;;;;;;;24.25;14.13;;;7.20;99.90;;;8.14;100.00;99915.88;5004651;27;122037;-76
2022/10/14 06:45:29;;;;;;;23.08;13.68;;;7.30;99.90;;;8.23;100.00;99914.16;5024068;28;129887;-76
2022/10/14 06:47:57;;;;;;;26.95;14.25;;;7.40;99.90;;;8.38;100.00;99913.22;5022517;27;129926;-76
2022/10/14 06:50:26;;;;;;;21.58;13.10;;;7.50;99.90;;;8.46;100.00;99914.47;5009884;28;121157;-75
2022/10/14 06:52:55;;;;;;;21.27;12.38;;;7.60;99.90;;;8.59;100.00;99913.81;5009039;28;119971;-77
2022/10/14 06:55:24;;;;;;;18.05;11.93;;;7.70;99.90;;;8.67;100.00;99908.88;4991450;28;128810;-76
2022/10/14 06:57:52;;;;;;;20.30;12.88;;;7.80;99.90;;;8.77;100.00;99903.31;5003802;28;130267;-76
2022/10/14 07:00:22;;;;;;;20.48;12.48;;;7.80;99.90;;;8.91;100.00;99898.00;4971367;28;118268;-76
2022/10/14 07:02:51;;;;;;;19.70;11.98;;;8.00;99.90;;;9.04;100.00;99902.72;5003865;28;119226;-78
2022/10/14 07:05:19;;;;;;;20.30;10.48;;;8.00;99.90;;;9.10;100.00;99896.13;5004020;28;130674;-76
2022/10/14 07:07:48;;;;;;;16.48;9.52;;;8.10;99.90;;;9.16;100.00;99907.69;5005324;28;129960;-76
2022/10/14 07:10:17;;;;;;;19.15;10.05;;;8.20;99.90;;;9.16;100.00;99908.50;5001535;28;119591;-76
2022/10/14 07:12:46;;;;;;;18.33;8.80;;;8.20;99.90;;;9.31;100.00;99912.09;5003008;28;119368;-76
2022/10/14 07:15:14;;;;;;;15.07;9.63;;;8.30;99.90;;;9.41;100.00;99911.13;4971102;28;129104;-76
2022/10/14 07:17:45;;;;;;;16.63;9.00;;;8.40;99.90;;;9.50;100.00;99914.78;5002202;28;129582;-76
2022/10/14 07:20:13;;;;;;;16.58;9.40;;;8.50;99.90;;;9.55;100.00;99922.84;5001622;28;120711;-77
2022/10/14 07:22:42;;;;;;;16.38;9.82;;;8.50;99.90;;;9.61;100.00;99924.38;5002585;28;119815;-76
2022/10/14 07:25:11;;;;;;;15.77;9.65;;;8.50;99.90;;;9.76;100.00;99922.53;5000870;28;129795;-76
2022/10/14 07:27:40;;;;;;;16.85;10.07;;;8.70;99.90;;;9.85;100.00;99926.19;5001113;28;129782;-76
2022/10/14 07:30:10;;;;;;;18.48;10.15;;;8.80;99.90;;;9.92;100.00;99918.47;5000300;28;122097;-75
2022/10/14 07:32:38;;;;;;;15.60;9.10;;;8.80;99.90;;;9.94;100.00;99913.56;5003043;27;121835;-76
2022/10/14 07:35:09;;;;;;;17.20;9.43;;;8.80;89.30;;;10.11;99.18;99925.75;5021775;28;129952;-76
2022/10/14 07:37:37;;;;;;;15.00;10.27;;;9.00;89.40;;;10.24;97.98;99927.69;5020483;28;129821;-77
2022/10/14 07:40:08;;;;;;;19.90;10.18;;;9.10;85.20;;;10.34;96.95;99922.09;5004765;28;120020;-77
2022/10/14 07:42:36;;;;;;;20.85;10.50;;;9.20;51.60;;;10.51;96.56;99920.72;5000761;28;119589;-76
2022/10/14 07:45:08;;;;;;;16.30;10.10;;;9.40;54.80;;;10.62;95.66;99933.00;5000962;28;129623;-75
2022/10/14 07:47:36;;;;;;;20.15;10.13;;;9.50;57.70;;;10.60;93.27;99925.16;5003148;28;129633;-77
2022/10/14 07:50:07;;;;;;;18.75;10.40;;;9.50;27.10;;;10.72;93.77;99931.97;5000641;28;120262;-75
2022/10/14 07:52:37;;;;;;;22.23;11.35;;;9.70;23.90;;;10.86;92.41;99932.81;5000478;28;119574;-77
2022/10/14 07:55:07;;;;;;;16.50;9.80;;;9.80;19.50;;;11.03;91.60;99932.19;5003968;28;129816;-76
2022/10/14 07:57:35;;;;;;;17.92;10.85;;;9.90;12.60;;;11.17;90.46;99931.34;5005477;28;128279;-77
2022/10/14 08:00:06;;;;;;;16.88;11.05;;;10.00;4.60;;;11.28;88.38;99928.13;4989345;28;119202;-76
2022/10/14 08:02:40;;;;;;;24.38;11.50;;;10.00;1.00;;;11.37;88.11;99925.47;5020486;28;119735;-76
2022/10/14 08:05:10;;;;;;;21.73;12.13;;;10.10;1.00;;;11.42;87.31;99924.53;5005519;28;129619;-76
2022/10/14 08:07:38;;;;;;;21.80;11.80;;;10.10;1.00;;;11.47;86.97;99919.81;5020612;28;129487;-76
2022/10/14 08:10:07;;;;;;;23.10;10.93;;;10.20;1.00;;;11.50;86.30;99919.19;5020754;28;119627;-76
2022/10/14 08:12:36;;;;;;;18.27;10.85;;;10.30;1.00;;;11.64;85.69;99918.31;5020556;28;119532;-76
2022/10/14 08:15:05;;;;;;;16.38;11.25;;;10.50;1.00;;;11.79;84.47;99915.22;5005363;28;129598;-74
2022/10/14 08:17:34;;;;;;;29.00;10.90;;;10.50;1.00;;;11.76;82.98;99923.22;5019363;28;129483;-75
2022/10/14 08:20:03;;;;;;;18.55;10.65;;;10.50;1.00;;;11.84;82.89;99915.13;5018380;28;122540;-74
2022/10/14 08:22:33;;;;;;;15.68;9.70;;;10.60;1.00;;;11.93;81.03;99917.13;4985425;28;123318;-75
2022/10/14 08:25:02;;;;;;;18.77;9.20;;;10.70;1.00;;;12.03;80.98;99914.16;4999091;28;129669;-74
2022/10/14 08:27:31;;;;;;;17.17;9.63;;;10.80;1.00;;;12.11;79.84;99909.88;5000349;28;129477;-76
2022/10/14 08:29:59;;;;;;;18.92;9.52;;;10.90;1.00;;;12.06;78.07;99902.66;5000700;28;119730;-74
2022/10/14 08:32:28;;;;;;;15.63;8.25;;;10.80;1.00;;;12.13;78.39;99907.66;4999967;28;119489;-76
2022/10/14 08:34:57;;;;;;;15.32;8.50;;;10.90;1.00;;;12.28;77.19;99903.69;4999854;28;129903;-76
2022/10/14 08:37:25;;;;;;;17.08;9.68;;;11.00;1.00;;;12.19;76.96;99898.25;5001961;28;129900;-75
2022/10/14 08:39:55;;;;;;;21.20;10.18;;;10.80;1.00;;;12.32;78.42;99901.97;4999640;28;120278;-75
2022/10/14 08:42:43;;;;;;;19.02;10.88;;;11.00;1.00;;;12.49;78.38;99899.31;4985403;28;119931;-76
2022/10/14 08:45:19;;;;;;;15.70;8.95;;;11.20;1.00;;;12.61;77.89;99895.22;4998525;28;129795;-75
2022/10/14 08:47:47;;;;;;;;;;;11.30;1.00;;;12.64;76.95;99889.16;4968441;28;129284;-74
2022/10/14 08:50:28;;;;;;;13.88;8.45;;;11.40;1.00;;;12.67;76.15;99907.53;4980390;28;119966;-74
2022/10/14 08:53:06;;;;;;;18.60;9.43;;;11.40;1.00;;;12.75;74.69;99906.78;4984318;28;102747;-75
2022/10/14 08:55:42;;;;;;;18.85;9.73;;;11.40;1.00;;;12.79;74.34;99902.28;4980269;28;129786;-74
2022/10/14 08:58:16;;;;;;;13.27;9.00;;;11.40;1.00;;;12.83;74.10;99902.50;4979841;28;129737;-73
2022/10/14 09:00:50;;;;;;;15.95;8.73;;;11.50;1.00;;;12.95;73.35;99902.69;4979670;28;119569;-75
2022/10/14 09:03:23;;;;;;;20.00;9.70;;;11.60;1.00;;;13.05;73.05;99898.84;4965434;28;118045;-75
2022/10/14 09:06:00;;;;;;;19.73;9.43;;;11.60;1.00;;;13.05;74.00;99893.41;4979878;28;129741;-75
2022/10/14 09:08:34;;;;;;;19.13;9.50;;;11.70;1.00;;;13.13;72.65;99900.75;4964804;28;128973;-75
2022/10/14 09:11:06;;;;;;;22.42;9.63;;;11.70;1.00;;;13.27;72.42;99901.41;4978317;28;121928;-74
2022/10/14 09:13:39;;;;;;;17.83;9.38;;;11.90;1.00;;;13.40;72.87;99901.63;4979007;28;123113;-73
2022/10/14 09:16:16;;;;;;;14.77;9.27;;;12.00;1.00;;;13.52;71.45;99900.97;4979268;28;129933;-74
2022/10/14 09:18:50;;;;;;;18.88;8.80;;;12.10;1.00;;;13.49;71.33;99894.25;4979225;28;130138;-76
2022/10/14 09:21:29;;;;;;;15.68;8.68;;;12.10;1.00;;;13.29;72.58;99893.75;4980070;28;119608;-74
2022/10/14 09:24:03;;;;;;;15.18;7.05;;;12.10;1.00;;;13.49;71.76;99891.50;4965366;28;118492;-74
2022/10/14 09:26:41;;;;;;;16.73;8.90;;;12.20;1.00;;;13.62;69.78;99890.56;4964882;28;130003;-73
2022/10/14 09:29:24;;;;;;;14.70;9.45;;;12.20;1.00;;;13.83;71.73;99884.44;4979902;28;130162;-75
2022/10/14 09:31:56;;;;;;;13.18;8.15;;;12.50;1.00;;;13.90;69.44;99900.28;4979848;28;119369;-76
2022/10/14 09:34:32;;;;;;;13.30;7.30;;;12.40;1.00;;;13.90;70.00;99892.09;4968425;28;119395;-76
2022/10/14 09:37:22;;;;;;;;;;;12.40;1.00;;;13.77;68.25;99891.19;4982121;28;129857;-76
2022/10/14 09:39:53;;;;;;;10.63;5.15;;;12.40;1.00;;;13.94;68.04;99891.13;4968312;28;128677;-75
2022/10/14 09:42:33;;;;;;;9.73;4.57;;;12.60;1.00;;;13.71;67.22;99892.47;4952456;28;118879;-75
2022/10/14 09:45:09;;;;;;;8.35;3.80;;;12.40;1.00;;;13.70;68.87;99888.13;4982924;28;119636;-76
2022/10/14 09:47:49;;;;;;;;;;;12.40;1.00;;;13.84;68.43;99891.50;4985350;28;129848;-75
2022/10/14 09:50:26;;;;;;;8.15;4.00;;;12.70;1.00;;;13.97;66.20;99890.50;4968380;28;128375;-75
2022/10/14 09:53:00;;;;;;;7.10;3.80;;;12.80;1.00;;;14.19;66.04;99891.41;4983063;28;120123;-75
2022/10/14 09:55:30;;;;;;;10.45;4.38;;;12.90;1.00;;;14.31;64.74;99888.78;4983750;28;119210;-75
2022/10/14 09:58:07;;;;;;;8.57;4.38;;;13.00;1.00;;;14.28;63.78;99886.72;4968102;28;129032;-73
2022/10/14 10:00:38;;;;;;;9.75;4.18;;;12.90;1.00;;;14.29;65.24;99885.59;4982659;28;129931;-74
2022/10/14 10:03:07;;;;;;;7.28;3.88;;;12.90;1.00;;;14.30;63.75;99886.38;4950787;28;121614;-72
2022/10/14 10:05:36;;;;;;;9.95;4.93;;;12.80;1.00;;;14.36;64.16;99880.41;4982785;28;121880;-75
2022/10/14 10:08:16;;;;;;;10.18;4.45;;;12.90;1.00;;;14.34;64.00;99877.22;4951607;28;128960;-75
2022/10/14 10:10:59;;;;;;;9.15;4.32;;;12.90;1.00;;;14.42;64.49;99877.50;4965120;28;129934;-74
2022/10/14 10:13:43;;;;;;;8.52;4.15;;;13.10;1.00;;;14.51;64.22;99873.59;4982729;28;120695;-75
2022/10/14 10:16:26;;;;;;;13.55;4.72;;;13.20;1.00;;;14.47;63.89;99878.13;4982995;28;119432;-75
2022/10/14 10:18:56;;;;;;;11.85;4.78;;;13.10;1.00;;;14.67;64.77;99873.09;4967604;28;128876;-72
2022/10/14 10:21:28;;;;;;;11.05;5.47;;;13.30;1.00;;;14.82;63.48;99874.44;4967990;28;129041;-75
2022/10/14 10:24:00;;;;;;;10.88;4.90;;;13.40;1.00;;;14.91;63.52;99872.44;4982769;28;119367;-74
2022/10/14 10:26:30;;;;;;;12.40;5.57;;;13.50;1.00;;;14.94;63.26;99871.78;4967521;28;119763;-74
2022/10/14 10:29:04;;;;;;;9.75;4.90;;;13.40;1.00;;;14.86;62.04;99869.91;4992697;28;130042;-75
2022/10/14 10:32:05;;;;;;;9.32;4.85;;;13.30;1.00;;;14.97;63.87;99862.91;4984688;28;130642;-74
2022/10/14 10:35:20;;;;;;;14.43;4.75;;;13.50;1.00;;;15.05;63.37;99867.53;4983109;28;119710;-74